Terminal Aerodrome Forecast
Issued by NWS Wichita, KS

Home | Current Version | Previous Version | Graphics & Text | Print | Product List | Glossary On
Versions: 1 2 3 4 5 6 7 8 9 10 11 12 13
000
FTUS43 KICT 020520
TAFICT
TAF
KICT 020520Z 0206/0306 18005KT P6SM BKN250
     FM021300 17010KT P6SM BKN100
     FM021700 18015G25KT P6SM FEW060
     FM030000 17012KT P6SM SCT250=

USA.gov is the U.S. government's official web portal to all federal, state and local government web resources and services.